createdAt,value
2023-03-30T00:01:20.102Z,99113.34778754508
2023-03-30T00:04:19.248Z,99108.2264270267
2023-03-30T00:07:17.867Z,99101.9221586812
2023-03-30T00:11:18.380Z,99090.78520117914
2023-03-30T00:14:19.987Z,99086.57543808076
2023-03-30T00:17:18.095Z,99082.17038188648
2023-03-30T00:21:18.719Z,99084.682752197
2023-03-30T00:24:16.843Z,99085.74455992033
2023-03-30T00:27:16.734Z,99088.09993224243
2023-03-30T00:31:16.923Z,99082.63082433226
2023-03-30T00:34:17.356Z,99085.07980698012
2023-03-30T00:37:16.921Z,99081.39672271072
2023-03-30T00:41:17.098Z,99077.46427076025
2023-03-30T00:45:17.362Z,99071.55968956044
2023-03-30T00:47:18.316Z,99073.10438369507
2023-03-30T00:51:18.100Z,99063.85292565692
2023-03-30T00:54:19.541Z,99066.38579783066
2023-03-30T00:57:19.392Z,99071.7326623525
2023-03-30T01:01:17.549Z,99066.99039051619
2023-03-30T01:04:17.521Z,99064.96244522919
2023-03-30T01:07:16.977Z,99061.7420465631
2023-03-30T01:11:16.808Z,99050.65681429085
2023-03-30T01:14:17.664Z,99048.70047010349
2023-03-30T01:17:27.579Z,99041.23757947315
2023-03-30T01:21:56.528Z,99040.10412754932
2023-03-30T01:25:43.575Z,99042.93488445033
2023-03-30T01:27:33.568Z,99045.76156741394
2023-03-30T01:31:36.391Z,99045.3946503774
2023-03-30T01:35:01.271Z,99038.26539631392
2023-03-30T01:37:41.520Z,99040.28915148164
2023-03-30T01:41:27.052Z,99041.58415050164
2023-03-30T01:44:28.525Z,99042.48798708325
2023-03-30T01:47:21.811Z,99043.98825484248
2023-03-30T01:51:21.775Z,99035.49219921877
2023-03-30T01:54:22.243Z,99022.84348963006
2023-03-30T01:57:23.167Z,99024.92144520314
2023-03-30T02:01:19.392Z,99018.78315466817
2023-03-30T02:04:21.949Z,99023.47629164699
2023-03-30T02:07:21.952Z,99017.15212758494
2023-03-30T02:11:17.015Z,99019.79354188238
2023-03-30T02:14:19.421Z,99019.0746501755
2023-03-30T02:17:21.556Z,99014.40194811451
2023-03-30T02:21:16.761Z,99007.23899367888
2023-03-30T02:24:23.657Z,99008.20061751197
2023-03-30T02:27:17.331Z,99007.22990961268
2023-03-30T02:31:17.426Z,99012.17042111231
2023-03-30T02:34:25.906Z,99014.68057222199
2023-03-30T02:37:30.702Z,99012.81745659011
2023-03-30T02:41:33.004Z,99010.76498100591
2023-03-30T02:44:25.450Z,99011.60613297833
2023-03-30T02:47:28.599Z,99012.34116050639
2023-03-30T02:51:33.002Z,99000.08487593432
2023-03-30T02:54:28.618Z,99005.27193328226
2023-03-30T03:11:16.305Z,99001.00326892613
2023-03-30T03:14:16.723Z,98993.60939702523
2023-03-30T03:17:19.069Z,98990.63362513274
2023-03-30T03:21:16.461Z,98987.80709122024
2023-03-30T03:24:19.371Z,98991.41693206716
2023-03-30T03:27:16.803Z,98991.43839636714
2023-03-30T03:31:16.671Z,98997.59550988965
2023-03-30T03:34:18.430Z,99002.10588201879
2023-03-30T03:37:16.971Z,98997.61679005653
2023-03-30T03:41:16.423Z,98997.77209664497
2023-03-30T03:44:16.801Z,98993.2024615548
2023-03-30T03:47:17.284Z,98988.66474669735
2023-03-30T03:51:16.433Z,98991.46936134622
2023-03-30T03:54:17.149Z,98990.13837177242
2023-03-30T03:57:16.587Z,98987.68870920951
2023-03-30T04:01:16.337Z,98992.24015353383
2023-03-30T04:04:17.165Z,98989.75075221677
2023-03-30T04:07:17.086Z,98991.2312822659
2023-03-30T04:11:16.646Z,98990.35174915798
2023-03-30T04:14:16.963Z,98991.9948699357
2023-03-30T04:21:18.053Z,98999.13461847097
2023-03-30T04:24:16.686Z,99004.70662618002
2023-03-30T04:27:17.423Z,99006.16257917938
2023-03-30T04:31:17.105Z,99003.61195396192
2023-03-30T04:34:22.159Z,99005.9877620835
2023-03-30T04:37:18.916Z,99006.76805820185
2023-03-30T04:41:17.633Z,99011.55591486771
2023-03-30T04:44:22.757Z,99010.62013356482
2023-03-30T05:01:17.276Z,99016.0734521154
2023-03-30T05:04:17.896Z,99020.3962914538
2023-03-30T05:11:16.506Z,99020.74764843775
2023-03-30T05:14:16.991Z,99028.76509530008
2023-03-30T05:17:16.976Z,99026.65900109032
2023-03-30T05:21:16.278Z,99031.82916128937
2023-03-30T05:24:16.589Z,99034.9260447804
2023-03-30T05:27:16.504Z,99036.18168510479
2023-03-30T05:31:18.140Z,99043.79980939657
2023-03-30T05:34:17.574Z,99056.27450003717
2023-03-30T05:37:17.367Z,99055.16039603158
2023-03-30T05:41:17.725Z,99055.41003113611
2023-03-30T05:44:17.364Z,99053.11082368996
2023-03-30T06:01:16.404Z,99046.16374293879
2023-03-30T06:04:16.857Z,99049.9485315222
2023-03-30T06:07:18.728Z,99046.94154341052
2023-03-30T06:11:17.057Z,99033.1972427936
2023-03-30T06:14:17.806Z,99031.94677719683
2023-03-30T06:17:17.444Z,99038.74871781819
2023-03-30T06:21:17.538Z,99040.53681818709
2023-03-30T06:24:19.117Z,99038.50321363803
2023-03-30T06:27:17.727Z,99038.03868090849
2023-03-30T06:31:16.929Z,99033.77358129677
2023-03-30T06:34:17.224Z,99034.56424821838
2023-03-30T06:37:17.676Z,99040.31563418833
2023-03-30T06:41:16.846Z,99029.32545487143
2023-03-30T06:44:16.952Z,99026.52972566742
2023-03-30T06:47:16.957Z,99027.49704204104
2023-03-30T06:51:16.917Z,99024.51231075202
2023-03-30T06:54:20.889Z,99031.42683137252
2023-03-30T06:57:17.250Z,99037.38335062175
2023-03-30T07:01:17.278Z,99043.55768806617
2023-03-30T07:04:17.684Z,99045.90052755286
2023-03-30T07:07:18.445Z,99042.13827062784
2023-03-30T07:11:16.464Z,99044.79436689433
2023-03-30T07:14:16.704Z,99054.91488882288
2023-03-30T07:17:16.794Z,99050.42841309994
2023-03-30T07:21:17.625Z,99059.95460391947
2023-03-30T07:24:17.427Z,99066.2023245649
2023-03-30T07:27:18.116Z,99067.5050896915
2023-03-30T07:31:17.673Z,99073.19884845834
2023-03-30T07:34:17.383Z,99072.54129696477
2023-03-30T07:37:20.559Z,99072.7118674297
2023-03-30T07:41:16.957Z,99072.55534493504
2023-03-30T07:44:17.405Z,99066.32280273276
2023-03-30T07:47:17.345Z,99067.23914775474
2023-03-30T07:51:16.976Z,99068.76554710545
2023-03-30T07:54:17.320Z,99062.54553321387
2023-03-30T07:57:17.474Z,99064.09346769893
2023-03-30T08:01:16.973Z,99073.37097439535
2023-03-30T08:11:16.782Z,99082.5659889747
2023-03-30T08:14:16.937Z,99077.63237275717
2023-03-30T08:17:17.102Z,99083.44376637708
2023-03-30T08:21:17.308Z,99077.05780695702
2023-03-30T08:24:17.399Z,99071.28211718332
2023-03-30T08:27:17.125Z,99069.27136476172
2023-03-30T08:31:18.760Z,99067.60329763673
2023-03-30T08:34:16.452Z,99067.46825350469
2023-03-30T08:37:16.793Z,99061.92282705437
2023-03-30T08:42:37.156Z,99060.20864288181
2023-03-30T08:44:27.410Z,99051.63434864169
2023-03-30T08:47:24.040Z,99053.03091295992
2023-03-30T08:51:22.688Z,99050.81147347455
2023-03-30T08:54:19.970Z,99053.03576705836
2023-03-30T08:57:30.061Z,99058.69073416645
2023-03-30T09:01:22.127Z,99049.5837661763
2023-03-30T09:04:24.497Z,99051.05172682487
2023-03-30T09:07:21.032Z,99046.38585621204
2023-03-30T09:11:26.601Z,99041.6597432439
2023-03-30T09:14:26.341Z,99040.14208495659
2023-03-30T09:17:21.979Z,99030.20705530218
2023-03-30T09:21:20.488Z,99040.81874127155
2023-03-30T09:24:24.404Z,99042.90632947288
2023-03-30T09:27:28.216Z,99032.7061547115
2023-03-30T09:31:22.577Z,99038.36073650784
2023-03-30T09:34:24.593Z,99036.47391832415
2023-03-30T09:37:19.142Z,99031.62311372215
2023-03-30T09:41:32.671Z,99035.5493169838
2023-03-30T09:44:23.292Z,99032.08334174598
2023-03-30T09:47:32.249Z,99033.3624158667
2023-03-30T09:51:20.566Z,99028.73713851738
2023-03-30T09:54:17.897Z,99026.24565533623
2023-03-30T09:57:27.478Z,99017.50976364838
2023-03-30T10:01:19.057Z,99021.93706760275
2023-03-30T10:04:18.821Z,99016.63923233798
2023-03-30T10:07:21.212Z,99011.20032527827
2023-03-30T10:11:21.061Z,98997.89572972046
2023-03-30T10:14:28.900Z,99002.1610954032
2023-03-30T10:17:20.670Z,99003.00802877368
2023-03-30T10:21:19.690Z,98982.06016037992
2023-03-30T10:24:21.374Z,98978.9722189612
2023-03-30T10:27:17.418Z,98983.40127007982
2023-03-30T10:31:16.789Z,98975.32861095949
2023-03-30T10:34:20.265Z,98974.529170657
2023-03-30T10:37:23.453Z,98963.74624780483
2023-03-30T10:41:21.861Z,98969.95213631628
2023-03-30T10:44:22.699Z,98966.2829568315
2023-03-30T10:47:43.435Z,98956.89953266234
2023-03-30T10:51:30.336Z,98959.5053861625
2023-03-30T10:54:24.848Z,98960.97686648142
2023-03-30T10:57:20.549Z,98964.22731197224
2023-03-30T11:01:22.604Z,98958.80865791746
2023-03-30T11:04:23.906Z,98958.14062450232
2023-03-30T11:07:33.076Z,98948.67297197969
2023-03-30T11:11:21.990Z,98950.89937798798
2023-03-30T11:14:23.806Z,98941.62369646566
2023-03-30T11:17:22.051Z,98935.28744945463
2023-03-30T11:21:24.056Z,98940.62343205085
2023-03-30T11:24:20.447Z,98938.51027275913
2023-03-30T11:27:24.570Z,98932.46819365163
2023-03-30T11:31:34.637Z,98932.62043155283
2023-03-30T11:34:30.551Z,98919.89430390648
2023-03-30T11:37:22.270Z,98915.41693019238
2023-03-30T11:41:23.042Z,98913.87024884895
2023-03-30T11:44:17.913Z,98912.91164313402
2023-03-30T11:47:40.945Z,98916.95553681614
2023-03-30T11:51:34.086Z,98899.152608981
2023-03-30T11:54:38.680Z,98897.08161641881
2023-03-30T11:57:26.341Z,98876.87754429376
2023-03-30T12:01:34.338Z,98872.20449286207
2023-03-30T12:04:25.871Z,98867.74602462635
2023-03-30T12:07:29.262Z,98872.43712701704
2023-03-30T12:11:26.609Z,98873.08831378617
2023-03-30T12:14:58.108Z,98873.5854248956
2023-03-30T12:17:28.570Z,98854.31640332726
2023-03-30T12:21:27.960Z,98842.7539258066
2023-03-30T12:24:24.172Z,98842.27623004447
2023-03-30T12:27:17.749Z,98843.3209065538
2023-03-30T12:31:18.429Z,98838.93580387969
2023-03-30T12:34:19.200Z,98832.73432266785
2023-03-30T12:37:22.127Z,98832.06832201536
2023-03-30T12:41:17.899Z,98821.07759774673
2023-03-30T12:44:30.193Z,98826.88532512677
2023-03-30T12:47:32.615Z,98830.07291141465
2023-03-30T12:51:33.869Z,98818.31734450611
2023-03-30T12:54:38.278Z,98816.3075568162
2023-03-30T12:57:30.859Z,98811.61137586323
2023-03-30T13:01:36.379Z,98818.28302846116
2023-03-30T13:04:23.696Z,98820.03737050937
2023-03-30T13:07:22.100Z,98816.57900499314
2023-03-30T13:11:18.494Z,98810.68278536414
2023-03-30T13:14:27.106Z,98809.1505825511
2023-03-30T13:17:18.283Z,98808.88303291351
2023-03-30T13:21:20.637Z,98805.55760343978
2023-03-30T13:24:38.850Z,98800.24331672378
2023-03-30T13:27:24.762Z,98804.76852306777
2023-03-30T13:31:39.496Z,98798.4062870807
2023-03-30T13:34:30.587Z,98789.28340616824
2023-03-30T13:37:26.528Z,98786.3205522799
2023-03-30T13:41:29.595Z,98785.23855738422
2023-03-30T13:44:35.075Z,98780.62844473153
2023-03-30T13:47:59.630Z,98779.0502588853
2023-03-30T13:51:22.429Z,98766.55379416805
2023-03-30T13:54:24.234Z,98770.11249912219
2023-03-30T13:57:22.497Z,98773.37159996781
2023-03-30T14:01:21.533Z,98759.92164378948
2023-03-30T14:04:17.085Z,98763.88857284674
2023-03-30T14:07:19.935Z,98760.7920263857
2023-03-30T14:11:20.440Z,98748.48755461707
2023-03-30T14:14:21.628Z,98739.71666961748
2023-03-30T14:17:20.316Z,98739.80977875882
2023-03-30T14:21:19.701Z,98740.87710157642
2023-03-30T14:24:26.455Z,98732.05273811828
2023-03-30T14:27:17.261Z,98731.22251816043
2023-03-30T14:31:20.191Z,98742.70484369864
2023-03-30T14:34:26.781Z,98738.84295528995
2023-03-30T14:37:21.117Z,98736.3015902536
2023-03-30T14:41:21.300Z,98739.11581678546
2023-03-30T14:44:21.761Z,98736.44853528075
2023-03-30T14:47:21.839Z,98736.76683874145
2023-03-30T14:51:32.984Z,98733.11441399551
2023-03-30T14:54:20.599Z,98725.85683489844
2023-03-30T14:57:19.041Z,98730.49158263473
2023-03-30T15:01:20.814Z,98716.76985539072
2023-03-30T15:04:18.246Z,98709.32086790538
2023-03-30T15:07:18.963Z,98714.942723601
2023-03-30T15:11:21.729Z,98713.79871337884
2023-03-30T15:14:20.759Z,98719.69982174825
2023-03-30T15:17:21.402Z,98712.91903136761
2023-03-30T15:21:18.445Z,98712.32357876262
2023-03-30T15:24:24.263Z,98709.47627167673
2023-03-30T15:27:17.673Z,98703.57460489935
2023-03-30T15:31:19.102Z,98718.27412262227
2023-03-30T15:34:17.381Z,98703.80971979466
2023-03-30T15:37:22.093Z,98699.21125358352
2023-03-30T15:41:20.012Z,98707.97889102866
2023-03-30T15:44:18.686Z,98706.43084092478
2023-03-30T15:47:18.782Z,98690.2875059098
2023-03-30T15:51:21.779Z,98697.10100581268
2023-03-30T15:54:21.790Z,98698.16229260452
2023-03-30T15:57:21.125Z,98686.03173999103
2023-03-30T16:01:16.937Z,98677.19753957134
2023-03-30T16:04:21.304Z,98677.97315364897
2023-03-30T16:07:18.680Z,98673.77533237821
2023-03-30T16:11:17.494Z,98671.74327878508
2023-03-30T16:14:19.454Z,98671.61427125604
2023-03-30T16:17:17.228Z,98671.75078163225
2023-03-30T16:21:16.722Z,98678.86619605121
2023-03-30T16:24:16.741Z,98677.15175142749
2023-03-30T16:27:16.518Z,98673.00757589558
2023-03-30T16:31:20.689Z,98674.70076239885
2023-03-30T16:34:17.719Z,98672.36287343767
2023-03-30T16:37:17.020Z,98679.16569243594
2023-03-30T16:41:20.209Z,98670.71826155315
2023-03-30T16:44:18.669Z,98682.10282603456
2023-03-30T16:47:20.806Z,98680.11173657709
2023-03-30T16:51:17.477Z,98668.53179380705
2023-03-30T16:54:29.450Z,98666.76598383526
2023-03-30T16:57:17.713Z,98664.69158217667
2023-03-30T17:01:19.001Z,98661.77491433095
2023-03-30T17:04:16.964Z,98658.89240316571
2023-03-30T17:07:17.625Z,98653.23881215179
2023-03-30T17:11:17.070Z,98649.06099581342
2023-03-30T17:14:17.278Z,98650.60197384782
2023-03-30T17:17:16.843Z,98656.94244781435
2023-03-30T17:21:16.952Z,98662.76095298829
2023-03-30T17:24:17.429Z,98675.1450190133
2023-03-30T17:27:18.249Z,98684.95135004791
2023-03-30T17:31:19.039Z,98690.82760941694
2023-03-30T17:34:16.700Z,98684.77709359594
2023-03-30T17:37:16.932Z,98682.46518679567
2023-03-30T17:41:18.600Z,98671.48428502835
2023-03-30T17:44:17.634Z,98665.29452796733
2023-03-30T17:47:17.499Z,98667.01290089275
2023-03-30T17:51:16.875Z,98670.3947560709
2023-03-30T17:54:17.092Z,98663.70672779795
2023-03-30T18:01:17.319Z,98652.2480580809
2023-03-30T18:11:16.490Z,98649.74888964962
2023-03-30T18:14:16.716Z,98667.67066796395
2023-03-30T18:17:17.401Z,98675.51780596552
2023-03-30T18:21:16.972Z,98675.7923616607
2023-03-30T18:24:17.322Z,98671.79359158938
2023-03-30T18:27:17.265Z,98666.81040659394
2023-03-30T18:31:16.391Z,98665.48924726761
2023-03-30T18:34:16.664Z,98662.90020128278
2023-03-30T18:37:16.605Z,98666.04929613935
2023-03-30T18:41:16.959Z,98670.7828559463
2023-03-30T18:44:17.654Z,98677.01741100091
2023-03-30T18:47:17.374Z,98680.5759432545
2023-03-30T18:51:16.422Z,98678.97488889917
2023-03-30T18:54:16.983Z,98678.37348048996
2023-03-30T18:57:16.992Z,98674.64666335566
2023-03-30T19:01:16.919Z,98671.78189384619
2023-03-30T19:04:17.293Z,98675.01192919824
2023-03-30T19:07:17.655Z,98683.26307978174
2023-03-30T19:11:22.672Z,98678.66500076807
2023-03-30T19:14:17.828Z,98686.09988057631
2023-03-30T19:17:16.800Z,98681.07753829868
2023-03-30T19:21:17.478Z,98675.02120346967
2023-03-30T19:24:16.905Z,98669.84827350297
2023-03-30T19:27:16.837Z,98669.81738954948
2023-03-30T19:31:17.818Z,98672.93693304056
2023-03-30T19:34:17.384Z,98674.11290582438
2023-03-30T19:37:17.848Z,98685.82010084603
2023-03-30T19:41:18.040Z,98699.52453519686
2023-03-30T19:44:17.280Z,98699.51298613768
2023-03-30T19:47:19.788Z,98704.12494225817
2023-03-30T19:51:19.423Z,98711.9603032456
2023-03-30T19:54:18.299Z,98708.70876521475
2023-03-30T19:57:17.989Z,98712.39144563058
2023-03-30T20:01:17.134Z,98719.33795519879
2023-03-30T20:04:16.899Z,98722.85668579908
2023-03-30T20:07:16.813Z,98723.71468856648
2023-03-30T20:11:16.657Z,98727.78758083211
2023-03-30T20:14:16.479Z,98722.42887853661
2023-03-30T20:17:16.424Z,98716.23934962264
2023-03-30T20:21:17.431Z,98706.74197782393
2023-03-30T20:24:17.197Z,98702.01338925977
2023-03-30T20:27:17.330Z,98704.33864448106
2023-03-30T20:31:17.360Z,98708.97462446112
2023-03-30T20:34:19.055Z,98708.0928389539
2023-03-30T20:37:17.610Z,98700.0545402652
2023-03-30T20:41:17.477Z,98692.3757940255
2023-03-30T20:44:18.892Z,98691.04689213148
2023-03-30T20:51:16.811Z,98684.44559510548
2023-03-30T20:54:17.846Z,98682.7876286486
2023-03-30T20:57:16.986Z,98686.95369562201
2023-03-30T21:01:27.427Z,98685.63538663785
2023-03-30T21:04:22.552Z,98689.95058722129
2023-03-30T21:07:25.283Z,98696.101319241
2023-03-30T21:11:16.305Z,98700.06283075611
2023-03-30T21:14:16.913Z,98696.872162327
2023-03-30T21:17:16.652Z,98696.8495938458
2023-03-30T21:21:17.387Z,98689.26421768335
2023-03-30T21:24:18.949Z,98689.28958755649
2023-03-30T21:27:17.055Z,98682.29720079385
2023-03-30T21:31:17.573Z,98686.42641289906
2023-03-30T21:34:19.129Z,98686.24418024124
2023-03-30T21:37:17.111Z,98680.6891770388
2023-03-30T21:41:19.373Z,98684.8313574723
2023-03-30T21:44:17.204Z,98686.45091265312
2023-03-30T21:47:17.011Z,98687.0796978424
2023-03-30T21:51:18.758Z,98686.54971300713
2023-03-30T21:54:18.235Z,98679.40051797664
2023-03-30T21:57:17.063Z,98674.82064166249
2023-03-30T22:01:22.508Z,98672.28555266123
2023-03-30T22:04:16.440Z,98673.24516283363
2023-03-30T22:07:16.806Z,98666.65844325119
2023-03-30T22:11:19.829Z,98657.22268304756
2023-03-30T22:14:17.262Z,98657.93644470304
2023-03-30T22:17:19.054Z,98663.18553903063
2023-03-30T22:21:19.891Z,98662.52566717243
2023-03-30T22:24:18.658Z,98668.09718923294
2023-03-30T22:27:17.161Z,98667.58628166506
2023-03-30T22:31:17.178Z,98672.58653884809
2023-03-30T22:34:17.334Z,98666.89401907596
2023-03-30T22:37:17.222Z,98663.75485234967
2023-03-30T22:41:17.391Z,98661.53401559297
2023-03-30T22:44:18.454Z,98662.14146054548
2023-03-30T22:47:16.467Z,98660.40181502378
2023-03-30T22:51:23.822Z,98648.55075961066
2023-03-30T22:54:17.571Z,98650.57119718485
2023-03-30T22:57:16.608Z,98645.75533036838
2023-03-30T23:01:16.877Z,98649.00352438928
2023-03-30T23:04:17.699Z,98652.82105617796
2023-03-30T23:07:16.346Z,98664.99001424329
2023-03-30T23:11:16.455Z,98656.37246295737
2023-03-30T23:14:16.509Z,98657.05522778195
2023-03-30T23:17:16.576Z,98666.74678106872
2023-03-30T23:21:17.245Z,98669.52742978258
2023-03-30T23:24:17.213Z,98678.96120386389
2023-03-30T23:27:17.298Z,98678.48867915159
2023-03-30T23:31:17.146Z,98684.85236034515
2023-03-30T23:34:17.252Z,98689.51742547912
2023-03-30T23:37:17.876Z,98689.78204546103
2023-03-30T23:41:18.632Z,98687.90006085037
2023-03-30T23:44:16.902Z,98693.97312909283
2023-03-30T23:47:17.519Z,98699.29425550732
2023-03-30T23:51:16.664Z,98692.81788659448
2023-03-30T23:54:18.571Z,98696.12030504401
2023-03-30T23:57:16.901Z,98696.73981134567
